Time;durP1;ratioP1;P1;durP2;ratioP2;P2;SDS_P1;SDS_P2;PMS_P1;PMS_P2;Temp;Humidity;BMP_temperature;BMP_pressure;BME280_temperature;BME280_humidity;BME280_pressure;Samples;Min_cycle;Max_cycle;Signal;HPM_P1;HPM_P2
2021/06/27 13:35:40;;;;;;;;;;;;;;;;;;5100364;27;2123104;-73
2021/06/27 13:38:06;;;;;;;;;;;;;;;;;;5086376;27;19955;-79
2021/06/27 13:40:34;;;;;;;;;;;;;;;;;;5056853;28;19928;-77
2021/06/27 13:43:00;;;;;;;;;;;;;;;;;;5019657;28;19916;-77
2021/06/27 13:45:25;;;;;;;;;;;;;;;;;;5048382;28;19913;-78
2021/06/27 13:47:52;;;;;;;;;;;;;;;;;;5054774;28;19913;-84
2021/06/27 13:50:17;;;;;;;;;;;;;;;;;;5063910;28;19939;-77
2021/06/27 13:52:43;;;;;;;;;;;;;;;;;;5066167;28;19916;-78
2021/06/27 13:55:08;;;;;;;;;;;;;;;;;;5082774;28;20658;-78
2021/06/27 13:57:33;;;;;;;;;;;;;;;;;;5074168;28;19988;-80
2021/06/27 13:59:58;;;;;;;;;;;;;;;;;;5072865;28;19995;-78
2021/06/27 14:02:24;;;;;;;;;;;;;;;;;;5071001;28;19923;-78
2021/06/27 14:04:49;;;;;;;;;;;;;;;;;;5057950;28;19996;-77
2021/06/27 14:07:16;;;;;;;;;;;;;;;;;;5032911;28;20395;-78
2021/06/27 14:09:41;;;;;;;;;;;;;;;;;;5052178;28;19924;-78
2021/06/27 14:12:06;;;;;;;;;;;;;;;;;;5055950;28;19917;-78
2021/06/27 14:14:32;;;;;;;;;;;;;;;;;;5057378;28;19935;-83
2021/06/27 14:16:57;;;;;;;;;;;;;;;;;;5069108;28;20266;-82
2021/06/27 14:19:22;;;;;;;;;;;;;;;;;;5067477;28;19986;-76
2021/06/27 14:24:44;;;;;;;;;;;;;;;;;;5059691;27;19921;-73
2021/06/27 14:27:09;;;;;;;;;;;;;;;;;;5058081;28;20013;-73
2021/06/27 14:29:35;;;;;;;;;;;;;;;;;;5051902;28;19916;-73
2021/06/27 14:32:01;;;;;;;;;;;;;;;;;;5046593;28;19913;-73
2021/06/27 14:34:26;;;;;;;;;;;;;;;;;;5048827;28;19982;-73
2021/06/27 14:36:51;;;;;;;;;;;;;;;;;;5052905;28;19920;-73
2021/06/27 14:39:16;;;;;;;;;;;;;;;;;;5037738;28;19917;-73
2021/06/27 14:41:41;;;;;;;;;;;;;;;;;;5041364;28;20422;-75
2021/06/27 14:44:06;;;;;;;;;;;;;;;;;;5051822;28;19928;-75
2021/06/27 15:20:19;;;;;;;;;;;;;;;;;;4949784;27;1886434;-78
2021/06/27 15:22:45;;;;;;;;;;;;;;;;;;5035069;28;20022;-73
2021/06/27 15:25:10;;;;;;;;;;;;;;;;;;5060309;28;20037;-74
2021/06/27 15:27:35;;;;;;;;;;;;;;;;;;5061619;28;20337;-76
2021/06/27 15:30:01;;;;;;;;;;;;;;;;;;5062993;28;19999;-76
2021/06/27 15:32:26;;;;;;;;;;;;;;;;;;5068132;28;20392;-76
2021/06/27 15:37:08;;;;;;;;;;;;;;;;;;5103306;27;1850575;-61
2021/06/27 15:39:34;;;;;;;;;;;;;;;;;;5144382;27;19927;-58
2021/06/27 15:41:59;;;;;;;;;;;;;;;;;;5127044;27;19915;-61
2021/06/27 15:44:25;;;;;;;;;;;;;;;;;;5131491;27;19912;-62
2021/06/27 15:46:50;;;;;;;;;;;;;;;;;;5134265;27;20334;-61
2021/06/27 15:49:15;;;;;;;;;;;;;;;;;;5120261;27;20304;-60
2021/06/27 15:51:41;;;;;;;;;;;;;;;;;;5131662;27;19911;-63
2021/06/27 15:54:07;;;;;;;;;;;;;;;;;;5122395;27;20095;-62
2021/06/27 15:56:32;;;;;;;;;;;;;;;;;;5140301;27;19924;-62
2021/06/27 15:58:57;;;;;;;;;;;;;;;;;;5139391;27;19923;-63
2021/06/27 16:01:23;;;;;;;;;;;;;;;;;;5138627;27;19912;-64
2021/06/27 16:03:48;;;;;;;;;;;;;;;;;;5149808;27;19919;-64
2021/06/27 16:06:15;;;;;;;;;;;;;;;;;;5133618;27;19911;-64
2021/06/27 16:08:43;;;;;;;;;;;;;;;;;;5145872;27;19920;-64
2021/06/27 16:11:14;;;;;;;;;;;;;;;;;;5128668;28;19911;-64
2021/06/27 16:13:39;;;;;;;;;;;;;;;;;;5128955;28;19911;-65
2021/06/27 16:16:05;;;;;;;;;;;;;;;;;;5125201;28;20458;-65
2021/06/27 16:18:30;;;;;;;;;;;;;;;;;;5136025;27;19959;-66
2021/06/27 16:20:55;;;;;;;;;;;;;;;;;;5125849;28;20438;-67
2021/06/27 16:23:21;;;;;;;;;;;;;;;;;;5121746;28;19915;-66
2021/06/27 16:25:48;;;;;;;;;;;;;;;;;;5127452;28;20010;-67
2021/06/27 16:28:13;;;;;;;;;;;;;;;;;;5129025;28;19919;-68
2021/06/27 16:30:39;;;;;;;;;;;;;;;;;;5129152;28;20297;-67
2021/06/27 16:33:04;;;;;;;;;;;;;;;;;;5129351;28;20238;-68
2021/06/27 16:35:30;;;;;;;;;;;;;;;;;;5128995;28;20318;-68
2021/06/27 16:37:55;;;;;;;;;;;;;;;;;;5128673;28;19911;-67
2021/06/27 16:40:21;;;;;;;;;;;;;;;;;;5128963;28;20002;-67
2021/06/27 16:42:46;;;;;;;;;;;;;;;;;;5128913;28;19981;-69
2021/06/27 16:45:12;;;;;;;;;;;;;;;;;;5128843;28;19920;-67
2021/06/27 16:47:38;;;;;;;;;;;;;;;;;;5120107;28;20431;-68
2021/06/27 16:50:05;;;;;;;;;;;;;;;;;;5114856;28;19911;-68
2021/06/27 16:52:30;;;;;;;;;;;;;;;;;;5114940;28;19912;-68
2021/06/27 16:54:56;;;;;;;;;;;;;;;;;;5114946;28;19918;-69
2021/06/27 16:57:21;;;;;;;;;;;;;;;;;;5117805;27;19911;-68
2021/06/27 16:59:46;;;;;;;;;;;;;;;;;;5115116;28;19964;-66
2021/06/27 17:02:11;;;;;;;;;;;;;;;;;;5115013;28;20400;-67
2021/06/27 17:04:36;;;;;;;;;;;;;;;;;;5114794;28;19965;-67
2021/06/27 17:07:02;;;;;;;;;;;;;;;;;;5114661;28;20391;-67
2021/06/27 17:09:27;;;;;;;;;;;;;;;;;;5114500;28;19957;-67
2021/06/27 17:11:52;;;;;;;;;;;;;;;;;;5114890;28;19961;-67
2021/06/27 17:14:18;;;;;;;;;;;;;;;;;;5114522;28;20393;-66
2021/06/27 17:16:43;;;;;;;;;;;;;;;;;;5111393;27;19916;-68
2021/06/27 17:19:09;;;;;;;;;;;;;;;;;;5116513;27;20265;-68
2021/06/27 17:21:34;;;;;;;;;;;;;;;;;;5114444;28;20401;-68
2021/06/27 17:24:00;;;;;;;;;;;;;;;;;;5114396;28;19919;-69
2021/06/27 17:26:27;;;;;;;;;;;;;;;;;;5114395;28;19911;-68
2021/06/27 17:28:53;;;;;;;;;;;;;;;;;;5113857;28;19911;-69
2021/06/27 17:31:18;;;;;;;;;;;;;;;;;;5114208;28;19911;-67
2021/06/27 17:33:43;;;;;;;;;;;;;;;;;;5114421;28;19962;-68
2021/06/27 17:36:09;;;;;;;;;;;;;;;;;;5114220;28;19923;-68
2021/06/27 17:38:34;;;;;;;;;;;;;;;;;;5113969;28;19915;-68
2021/06/27 17:40:59;;;;;;;;;;;;;;;;;;5114096;28;19911;-68
2021/06/27 17:43:25;;;;;;;;;;;;;;;;;;5114315;28;19919;-68
2021/06/27 17:45:51;;;;;;;;;;;;;;;;;;5114300;28;19998;-68
2021/06/27 17:48:16;;;;;;;;;;;;;;;;;;5095656;28;19951;-68
2021/06/27 17:50:42;;;;;;;;;;;;;;;;;;5093419;28;19916;-68
2021/06/27 17:53:07;;;;;;;;;;;;;;;;;;5093505;28;19913;-68
2021/06/27 17:55:32;;;;;;;;;;;;;;;;;;5093323;28;19916;-69
2021/06/27 17:57:57;;;;;;;;;;;;;;;;;;5092924;28;19965;-69
2021/06/27 18:00:22;;;;;;;;;;;;;;;;;;5092346;28;19912;-68
2021/06/27 18:02:48;;;;;;;;;;;;;;;;;;5092958;28;20003;-69
2021/06/27 18:05:13;;;;;;;;;;;;;;;;;;5093578;28;20018;-68
2021/06/27 18:07:38;;;;;;;;;;;;;;;;;;5093006;28;19912;-68
2021/06/27 18:10:04;;;;;;;;;;;;;;;;;;5093411;28;19912;-67
2021/06/27 18:12:30;;;;;;;;;;;;;;;;;;5093459;28;20382;-68
2021/06/27 18:14:55;;;;;;;;;;;;;;;;;;5092925;28;19912;-68
2021/06/27 18:17:20;;;;;;;;;;;;;;;;;;5093198;28;19912;-67
2021/06/27 18:19:46;;;;;;;;;;;;;;;;;;5093294;28;20006;-68
2021/06/27 18:22:11;;;;;;;;;;;;;;;;;;5093755;28;19919;-69
2021/06/27 18:24:36;;;;;;;;;;;;;;;;;;5093791;28;19919;-69
2021/06/27 18:27:03;;;;;;;;;;;;;;;;;;5093454;28;19920;-69
2021/06/27 18:29:28;;;;;;;;;;;;;;;;;;5093199;28;20043;-69
2021/06/27 18:31:53;;;;;;;;;;;;;;;;;;5093151;28;20318;-67
2021/06/27 18:34:19;;;;;;;;;;;;;;;;;;5093491;28;19912;-68
2021/06/27 18:36:44;;;;;;;;;;;;;;;;;;5092479;28;20415;-68
2021/06/27 18:39:10;;;;;;;;;;;;;;;;;;5092549;28;19912;-68
2021/06/27 18:41:37;;;;;;;;;;;;;;;;;;5092634;28;19916;-68
2021/06/27 18:44:02;;;;;;;;;;;;;;;;;;5093116;28;19915;-69
2021/06/27 18:46:27;;;;;;;;;;;;;;;;;;5092755;28;19919;-67
2021/06/27 18:48:52;;;;;;;;;;;;;;;;;;5092239;28;19954;-67
2021/06/27 18:51:17;;;;;;;;;;;;;;;;;;5093059;28;19920;-67
2021/06/27 18:53:42;;;;;;;;;;;;;;;;;;5097041;27;20598;-68
2021/06/27 18:56:08;;;;;;;;;;;;;;;;;;5114792;27;19916;-69
2021/06/27 18:58:37;;;;;;;;;;;;;;;;;;5113083;28;19911;-69
2021/06/27 19:01:03;;;;;;;;;;;;;;;;;;5112933;28;20006;-67
2021/06/27 19:03:28;;;;;;;;;;;;;;;;;;5112877;28;19966;-67
2021/06/27 19:05:53;;;;;;;;;;;;;;;;;;5112807;28;19965;-68
2021/06/27 19:08:18;;;;;;;;;;;;;;;;;;5112488;28;19959;-68
2021/06/27 19:10:44;;;;;;;;;;;;;;;;;;5110344;27;19922;-67
2021/06/27 19:13:09;;;;;;;;;;;;;;;;;;5112813;28;19916;-68
2021/06/27 19:15:35;;;;;;;;;;;;;;;;;;5112974;27;19958;-66
2021/06/27 19:18:00;;;;;;;;;;;;;;;;;;5098351;27;20298;-66
2021/06/27 19:20:27;;;;;;;;;;;;;;;;;;5092220;28;20289;-69
2021/06/27 19:22:53;;;;;;;;;;;;;;;;;;5092308;28;19916;-68
2021/06/27 19:25:18;;;;;;;;;;;;;;;;;;5091972;28;19919;-68
2021/06/27 19:27:45;;;;;;;;;;;;;;;;;;5091772;28;19919;-68
2021/06/27 19:30:11;;;;;;;;;;;;;;;;;;5092467;28;19957;-68
2021/06/27 19:32:36;;;;;;;;;;;;;;;;;;5092053;28;19919;-68
2021/06/27 19:35:02;;;;;;;;;;;;;;;;;;5091329;28;19916;-68
2021/06/27 19:37:27;;;;;;;;;;;;;;;;;;5091077;28;19922;-68
2021/06/27 19:39:52;;;;;;;;;;;;;;;;;;5091683;28;19918;-68
2021/06/27 19:42:17;;;;;;;;;;;;;;;;;;5091265;28;19912;-69
2021/06/27 19:44:44;;;;;;;;;;;;;;;;;;5091376;28;19912;-70
2021/06/27 19:47:10;;;;;;;;;;;;;;;;;;5091278;28;19912;-66
2021/06/27 19:49:35;;;;;;;;;;;;;;;;;;5091471;28;19912;-68
2021/06/27 19:52:00;;;;;;;;;;;;;;;;;;5091529;28;19966;-68
2021/06/27 19:54:26;;;;;;;;;;;;;;;;;;5091524;28;19919;-68
2021/06/27 19:56:51;;;;;;;;;;;;;;;;;;5091337;28;19916;-68
2021/06/27 19:59:17;;;;;;;;;;;;;;;;;;5091145;28;20007;-69
2021/06/27 20:01:43;;;;;;;;;;;;;;;;;;5091142;28;20435;-68
2021/06/27 20:04:08;;;;;;;;;;;;;;;;;;5091762;28;19912;-69
2021/06/27 20:06:33;;;;;;;;;;;;;;;;;;5091360;28;19957;-68
2021/06/27 20:08:59;;;;;;;;;;;;;;;;;;5091278;28;19996;-68
2021/06/27 20:11:24;;;;;;;;;;;;;;;;;;5091673;28;20010;-69
2021/06/27 20:13:49;;;;;;;;;;;;;;;;;;5091408;28;19916;-69
2021/06/27 20:16:15;;;;;;;;;;;;;;;;;;5091011;28;19915;-69
2021/06/27 20:18:41;;;;;;;;;;;;;;;;;;5091143;28;19924;-68
2021/06/27 20:21:06;;;;;;;;;;;;;;;;;;5091139;28;19919;-70
2021/06/27 20:23:32;;;;;;;;;;;;;;;;;;5094181;28;19944;-68
2021/06/27 20:25:57;;;;;;;;;;;;;;;;;;5095331;28;19912;-68
2021/06/27 20:28:23;;;;;;;;;;;;;;;;;;5094949;28;19920;-68
2021/06/27 20:30:49;;;;;;;;;;;;;;;;;;5094933;28;19912;-68
2021/06/27 20:33:14;;;;;;;;;;;;;;;;;;5094870;28;20339;-69
2021/06/27 20:35:40;;;;;;;;;;;;;;;;;;5094751;28;20038;-69
2021/06/27 20:38:05;;;;;;;;;;;;;;;;;;5094585;28;19912;-68
2021/06/27 20:40:30;;;;;;;;;;;;;;;;;;5094899;28;19963;-68
2021/06/27 20:42:55;;;;;;;;;;;;;;;;;;5094802;28;19951;-68
2021/06/27 20:45:22;;;;;;;;;;;;;;;;;;5094616;28;19951;-67
2021/06/27 20:47:48;;;;;;;;;;;;;;;;;;5094681;28;19912;-68
2021/06/27 20:50:15;;;;;;;;;;;;;;;;;;5094979;28;19919;-67
2021/06/27 20:52:40;;;;;;;;;;;;;;;;;;5094731;28;19964;-68
2021/06/27 20:55:07;;;;;;;;;;;;;;;;;;5094540;28;19912;-68
2021/06/27 20:57:32;;;;;;;;;;;;;;;;;;5094524;28;20065;-68
2021/06/27 20:59:57;;;;;;;;;;;;;;;;;;5115843;27;20421;-68
2021/06/27 21:02:26;;;;;;;;;;;;;;;;;;5115074;28;19912;-69
2021/06/27 21:04:51;;;;;;;;;;;;;;;;;;5114815;28;19911;-70
2021/06/27 21:07:16;;;;;;;;;;;;;;;;;;5114717;28;19912;-68
2021/06/27 21:09:42;;;;;;;;;;;;;;;;;;5114541;27;19916;-68
2021/06/27 21:12:07;;;;;;;;;;;;;;;;;;5116923;27;19947;-68
2021/06/27 21:14:33;;;;;;;;;;;;;;;;;;5114329;28;20010;-68
2021/06/27 21:16:58;;;;;;;;;;;;;;;;;;5107340;28;19916;-68
2021/06/27 21:19:23;;;;;;;;;;;;;;;;;;5093657;28;19912;-69
2021/06/27 21:21:48;;;;;;;;;;;;;;;;;;5093972;28;19916;-68
2021/06/27 21:24:13;;;;;;;;;;;;;;;;;;5094121;28;19932;-69
2021/06/27 21:26:39;;;;;;;;;;;;;;;;;;5093943;28;19912;-69
2021/06/27 21:29:04;;;;;;;;;;;;;;;;;;5093947;28;20273;-69
2021/06/27 21:31:29;;;;;;;;;;;;;;;;;;5093635;28;20235;-70
2021/06/27 21:33:55;;;;;;;;;;;;;;;;;;5093438;28;19912;-68
2021/06/27 21:36:20;;;;;;;;;;;;;;;;;;5093277;28;19927;-69
2021/06/27 21:38:45;;;;;;;;;;;;;;;;;;5093216;28;19994;-68
2021/06/27 21:41:10;;;;;;;;;;;;;;;;;;5093507;28;20369;-69
2021/06/27 21:43:36;;;;;;;;;;;;;;;;;;5093318;28;19916;-69
2021/06/27 21:46:01;;;;;;;;;;;;;;;;;;5093343;28;19952;-69
2021/06/27 21:48:27;;;;;;;;;;;;;;;;;;5093020;28;19912;-69
2021/06/27 21:50:53;;;;;;;;;;;;;;;;;;5093657;28;19916;-68
2021/06/27 21:53:19;;;;;;;;;;;;;;;;;;5093194;28;19912;-69
2021/06/27 21:55:44;;;;;;;;;;;;;;;;;;5093176;28;19962;-66
2021/06/27 21:58:10;;;;;;;;;;;;;;;;;;5092933;28;19947;-69
2021/06/27 22:00:36;;;;;;;;;;;;;;;;;;5093257;28;19919;-68
2021/06/27 22:03:01;;;;;;;;;;;;;;;;;;5093686;28;19916;-68
2021/06/27 22:05:27;;;;;;;;;;;;;;;;;;5093938;28;19933;-68
2021/06/27 22:07:52;;;;;;;;;;;;;;;;;;5093755;28;19916;-68
2021/06/27 22:10:17;;;;;;;;;;;;;;;;;;5094107;28;19986;-68
2021/06/27 22:12:43;;;;;;;;;;;;;;;;;;5093341;28;19919;-68
2021/06/27 22:15:09;;;;;;;;;;;;;;;;;;5092943;28;19922;-68
2021/06/27 22:17:35;;;;;;;;;;;;;;;;;;5092801;28;20495;-68
2021/06/27 22:20:00;;;;;;;;;;;;;;;;;;5092931;28;19912;-68
2021/06/27 22:22:25;;;;;;;;;;;;;;;;;;5093024;28;19915;-68
2021/06/27 22:24:50;;;;;;;;;;;;;;;;;;5092836;28;20015;-68
2021/06/27 22:27:17;;;;;;;;;;;;;;;;;;5092869;28;19923;-68
2021/06/27 22:29:43;;;;;;;;;;;;;;;;;;5092547;28;19973;-68
2021/06/27 22:32:08;;;;;;;;;;;;;;;;;;5092746;28;20336;-68
2021/06/27 22:34:34;;;;;;;;;;;;;;;;;;5092751;28;19912;-68
2021/06/27 22:36:59;;;;;;;;;;;;;;;;;;5092423;28;19924;-69
2021/06/27 22:39:24;;;;;;;;;;;;;;;;;;5092622;28;19937;-68
2021/06/27 22:41:49;;;;;;;;;;;;;;;;;;5092774;28;19919;-68
2021/06/27 22:44:16;;;;;;;;;;;;;;;;;;5096117;28;19999;-69
2021/06/27 22:46:42;;;;;;;;;;;;;;;;;;5096259;28;20366;-68
2021/06/27 22:49:07;;;;;;;;;;;;;;;;;;5112737;28;19919;-68
2021/06/27 22:51:32;;;;;;;;;;;;;;;;;;5105368;28;20389;-67
2021/06/27 22:53:57;;;;;;;;;;;;;;;;;;5115141;28;19914;-67
2021/06/27 22:56:22;;;;;;;;;;;;;;;;;;5119887;28;19926;-67
2021/06/27 22:58:49;;;;;;;;;;;;;;;;;;5103455;28;19948;-65
2021/06/27 23:01:15;;;;;;;;;;;;;;;;;;5101671;27;19958;-66
2021/06/27 23:03:40;;;;;;;;;;;;;;;;;;5110880;27;19924;-65
2021/06/27 23:06:06;;;;;;;;;;;;;;;;;;5123313;27;20304;-66
2021/06/27 23:08:32;;;;;;;;;;;;;;;;;;5098476;28;19922;-65
2021/06/27 23:10:57;;;;;;;;;;;;;;;;;;5075351;28;19916;-65
2021/06/27 23:13:22;;;;;;;;;;;;;;;;;;5091314;28;19918;-66
2021/06/27 23:15:48;;;;;;;;;;;;;;;;;;5091316;28;19916;-67
2021/06/27 23:18:13;;;;;;;;;;;;;;;;;;5107624;27;20394;-66
2021/06/27 23:20:38;;;;;;;;;;;;;;;;;;5094947;28;19923;-65
2021/06/27 23:23:03;;;;;;;;;;;;;;;;;;5105867;28;20010;-65
2021/06/27 23:25:30;;;;;;;;;;;;;;;;;;5098967;28;20384;-65
2021/06/27 23:27:55;;;;;;;;;;;;;;;;;;5111125;28;19919;-66
2021/06/27 23:30:20;;;;;;;;;;;;;;;;;;5122916;27;19915;-66
2021/06/27 23:32:45;;;;;;;;;;;;;;;;;;5130088;27;19912;-65
2021/06/27 23:35:11;;;;;;;;;;;;;;;;;;5130949;27;19964;-66
2021/06/27 23:37:36;;;;;;;;;;;;;;;;;;5130608;28;19915;-65
2021/06/27 23:40:02;;;;;;;;;;;;;;;;;;5130180;28;20021;-65
2021/06/27 23:42:27;;;;;;;;;;;;;;;;;;5130568;28;19911;-66
2021/06/27 23:44:52;;;;;;;;;;;;;;;;;;5130588;28;19919;-66
2021/06/27 23:47:18;;;;;;;;;;;;;;;;;;5111288;28;19918;-65
2021/06/27 23:49:43;;;;;;;;;;;;;;;;;;5090735;28;19916;-65
2021/06/27 23:52:08;;;;;;;;;;;;;;;;;;5091213;28;19951;-65
2021/06/27 23:54:33;;;;;;;;;;;;;;;;;;5091013;28;20280;-65
2021/06/27 23:56:59;;;;;;;;;;;;;;;;;;5091363;28;20405;-67
2021/06/27 23:59:24;;;;;;;;;;;;;;;;;;5095086;28;19924;-65
